createdAt,value
2023-01-11T00:07:11.351Z,100816.44
2023-01-11T00:14:43.072Z,100821.94
2023-01-11T00:22:14.782Z,100803.84
2023-01-11T00:29:46.502Z,100800.28
2023-01-11T00:37:18.211Z,100794.78
2023-01-11T00:45:08.509Z,100790.13
2023-01-11T00:52:40.262Z,100770.41
2023-01-11T01:00:12.733Z,100762.19
2023-01-11T01:07:44.847Z,100764.91
2023-01-11T01:15:16.647Z,100748.75
2023-01-11T01:22:48.393Z,100738.09
2023-01-11T01:30:20.146Z,100744.38
2023-01-11T01:37:51.908Z,100728.75
2023-01-11T01:45:25.790Z,100715.03
2023-01-11T01:53:02.867Z,100717.78
2023-01-11T02:00:34.780Z,100689.81
2023-01-11T02:08:11.798Z,100683.25
2023-01-11T02:15:43.547Z,100656.63
2023-01-11T02:23:39.887Z,100644.84
2023-01-11T02:31:29.218Z,100638.25
2023-01-11T02:39:30.965Z,100614.69
2023-01-11T02:47:04.815Z,100607.56
2023-01-11T02:54:36.691Z,100604.00
2023-01-11T03:02:08.423Z,100599.31
2023-01-11T03:09:58.269Z,100594.94
2023-01-11T03:17:46.958Z,100582.88
2023-01-11T03:25:28.442Z,100551.06
2023-01-11T03:33:21.389Z,100549.97
2023-01-11T03:41:01.774Z,100548.31
2023-01-11T03:49:11.083Z,100535.75
2023-01-11T03:57:07.481Z,100527.53
2023-01-11T04:04:39.262Z,100519.28
2023-01-11T04:12:11.025Z,100518.47
2023-01-11T04:19:42.818Z,100517.34
2023-01-11T04:27:14.611Z,100508.31
2023-01-11T04:34:46.356Z,100502.84
2023-01-11T04:42:18.269Z,100487.19
2023-01-11T04:49:50.165Z,100465.47
2023-01-11T04:57:25.361Z,100463.84
2023-01-11T05:04:57.151Z,100464.94
2023-01-11T05:12:28.934Z,100468.59
2023-01-11T05:20:00.680Z,100438.84
2023-01-11T05:35:04.006Z,100414.03
2023-01-11T05:42:35.778Z,100425.53
2023-01-11T05:50:08.202Z,100412.63
2023-01-11T05:57:46.797Z,100398.41
2023-01-11T06:05:18.601Z,100403.06
2023-01-11T06:13:13.251Z,100388.56
2023-01-11T06:20:49.815Z,100382.78
2023-01-11T06:28:21.695Z,100386.63
2023-01-11T06:35:53.607Z,100385.50
2023-01-11T06:43:25.485Z,100372.63
2023-01-11T06:50:58.249Z,100379.72
2023-01-11T06:58:30.064Z,100376.19
2023-01-11T07:06:01.986Z,100388.25
2023-01-11T07:13:33.802Z,100395.38
2023-01-11T07:21:05.718Z,100401.38
2023-01-11T07:28:37.457Z,100409.59
2023-01-11T07:36:09.389Z,100404.41
2023-01-11T07:43:41.129Z,100401.66
2023-01-11T07:51:13.424Z,100409.59
2023-01-11T07:58:45.275Z,100395.91
2023-01-11T08:06:17.264Z,100403.28
2023-01-11T08:14:07.844Z,100389.28
2023-01-11T08:21:39.672Z,100380.56
2023-01-11T08:29:11.451Z,100382.19
2023-01-11T08:36:43.188Z,100376.72
2023-01-11T08:44:22.314Z,100371.72
2023-01-11T08:52:05.068Z,100369.78
2023-01-11T08:59:36.853Z,100370.59
2023-01-11T09:07:08.701Z,100365.13
2023-01-11T09:14:41.435Z,100368.97
2023-01-11T09:22:13.202Z,100354.47
2023-01-11T09:29:46.095Z,100350.88
2023-01-11T09:37:18.070Z,100350.88
2023-01-11T09:44:58.123Z,100342.66
2023-01-11T09:52:36.248Z,100339.91
2023-01-11T10:00:48.773Z,100341.56
2023-01-11T10:18:38.447Z,100322.34
2023-01-11T10:24:58.708Z,100310.59
2023-01-11T10:41:04.618Z,100294.72
2023-01-11T10:48:44.341Z,100293.53
2023-01-11T10:56:42.536Z,100290.66
2023-01-11T11:04:45.912Z,100277.78
2023-01-11T11:12:25.970Z,100270.34
2023-01-11T11:19:57.784Z,100252.78
2023-01-11T11:27:33.145Z,100242.94
2023-01-11T11:35:07.742Z,100249.44
2023-01-11T11:42:39.502Z,100243.94
2023-01-11T11:50:41.904Z,100242.84
2023-01-11T11:58:13.111Z,100229.13
2023-01-11T12:05:58.500Z,100222.53
2023-01-11T12:13:32.284Z,100206.69
2023-01-11T12:21:20.597Z,100198.16
2023-01-11T12:30:05.167Z,100188.00
2023-01-11T12:38:15.104Z,100195.13
2023-01-11T12:46:16.520Z,100182.50
2023-01-11T12:54:35.459Z,100184.31
2023-01-11T13:02:07.094Z,100169.19
2023-01-11T13:10:18.948Z,100165.22
2023-01-11T13:17:58.942Z,100158.63
2023-01-11T13:25:33.637Z,100161.06
2023-01-11T13:33:12.281Z,100169.28
2023-01-11T13:40:49.787Z,100171.19
2023-01-11T13:48:32.261Z,100164.59
2023-01-11T13:56:30.944Z,100166.22
2023-01-11T14:04:16.849Z,100166.22
2023-01-11T14:12:17.020Z,100176.09
2023-01-11T14:20:03.252Z,100172.81
2023-01-11T14:27:40.945Z,100177.19
2023-01-11T14:35:36.962Z,100182.69
2023-01-11T14:43:46.333Z,100180.25
2023-01-11T14:51:32.504Z,100195.06
2023-01-11T14:59:07.099Z,100195.88
2023-01-11T15:06:53.428Z,100183.31
2023-01-11T15:14:30.130Z,100188.78
2023-01-11T15:22:03.479Z,100206.25
2023-01-11T15:29:42.268Z,100212.03
2023-01-11T15:38:06.992Z,100219.44
2023-01-11T15:46:03.711Z,100217.81
2023-01-11T15:54:05.032Z,100229.94
2023-01-11T16:02:14.027Z,100234.28
2023-01-11T16:10:03.764Z,100244.75
2023-01-11T16:17:38.326Z,100267.81
2023-01-11T16:25:11.833Z,100282.03
2023-01-11T16:32:43.615Z,100285.91
2023-01-11T16:40:19.460Z,100292.19
2023-01-11T16:48:12.566Z,100305.91
2023-01-11T16:56:14.905Z,100309.47
2023-01-11T17:03:51.924Z,100320.44
2023-01-11T17:11:42.270Z,100315.25
2023-01-11T17:19:21.996Z,100332.84
2023-01-11T17:27:01.889Z,100325.41
2023-01-11T17:34:37.755Z,100326.50
2023-01-11T17:42:30.496Z,100333.13
2023-01-11T17:50:03.124Z,100353.13
2023-01-11T17:57:34.933Z,100358.94
2023-01-11T18:05:07.023Z,100383.63
2023-01-11T18:12:40.268Z,100382.50
2023-01-11T18:20:15.124Z,100398.97
2023-01-11T18:27:46.959Z,100400.06
2023-01-11T18:35:19.423Z,100405.56
2023-01-11T18:42:52.860Z,100417.34
2023-01-11T18:50:24.632Z,100423.66
2023-01-11T18:57:58.310Z,100416.53
2023-01-11T19:05:30.192Z,100418.16
2023-01-11T19:13:01.990Z,100450.53
2023-01-11T19:20:33.853Z,100451.66
2023-01-11T19:28:05.906Z,100461.81
2023-01-11T19:35:40.963Z,100465.38
2023-01-11T19:43:14.444Z,100475.22
2023-01-11T19:50:46.301Z,100474.44
2023-01-11T19:58:18.018Z,100486.50
2023-01-11T20:05:49.853Z,100508.16
2023-01-11T20:13:21.856Z,100510.78
2023-01-11T20:20:56.852Z,100522.13
2023-01-11T20:28:28.627Z,100523.72
2023-01-11T20:36:00.480Z,100513.81
2023-01-11T20:43:33.080Z,100522.53
2023-01-11T20:51:05.094Z,100521.44
2023-01-11T20:58:36.927Z,100535.66
2023-01-11T21:06:09.428Z,100540.03
2023-01-11T21:13:41.175Z,100529.84
2023-01-11T21:21:15.097Z,100532.31
2023-01-11T21:28:51.588Z,100533.94
2023-01-11T21:36:24.234Z,100532.03
2023-01-11T21:43:55.989Z,100542.69
2023-01-11T21:51:29.698Z,100526.25
2023-01-11T21:59:01.636Z,100548.19
2023-01-11T22:06:41.457Z,100562.09
2023-01-11T22:14:13.288Z,100542.63
2023-01-11T22:21:45.037Z,100553.06
2023-01-11T22:29:16.888Z,100540.97
2023-01-11T22:36:48.818Z,100540.97
2023-01-11T22:44:20.548Z,100541.28
2023-01-11T22:51:52.322Z,100550.31
2023-01-11T22:59:24.178Z,100552.25
2023-01-11T23:06:57.137Z,100550.31
2023-01-11T23:14:30.163Z,100554.69
2023-01-11T23:22:02.299Z,100555.78
2023-01-11T23:29:35.435Z,100545.63
2023-01-11T23:37:08.248Z,100542.09
2023-01-11T23:44:40.031Z,100539.34
2023-01-11T23:52:11.880Z,100525.63
2023-01-11T23:59:43.853Z,100507.84
